Stephen R Warden — WDC6523 — position and weather

sailwx.info

Track history (hours):
 
Tides and Currents Weather Stations Pressure Air Temp Water Temp Dewpoint Dewpoint Depression Visibility Wind Speed Wind Dir Waves Ship Positions

Stephen R Warden

Owner: American Commercial Lines LLC, Jeffersonvile, IN. More information available from US FCC via Universal Licensing System and Coast Guard Vessel Documentation Center.

Last reported at 2016-Dec-04 10:23 UTC. Time now 2016-Dec-05 00:35 UTC.
Position N 29°57' W 090°02'.

Length 40 m; draft 3 m.

Type: Towing. MMSI: 367057460.

Date/timePositionNaut miles runAvg speedWind from/ knotsBaromVisibWave heightAir tempDewpointWater temp
2016-Dec-04 10:23N 29°57' W 090°02'5 4.3
2016-Dec-04 09:14N 29°55' W 090°07'3 4.8
2016-Dec-04 08:33N 29°57' W 090°09'3 2.7
2016-Dec-04 07:33N 29°56' W 090°11'1 0.9
2016-Dec-04 06:33N 29°55' W 090°12'4 0.1
2016-Dec-02 09:33N 29°58' W 090°15'4 3.9
2016-Dec-02 08:33N 29°55' W 090°12'2 2.0
2016-Dec-02 07:32N 29°57' W 090°10'2 0.1
2016-Dec-01 15:33N 29°56' W 090°08'4 3.9
2016-Dec-01 14:32N 29°56' W 090°13'5 0.2
2016-Nov-30 16:22N 29°58' W 090°18'4 4.4
2016-Nov-30 15:22N 29°56' W 090°13'3 4.0
2016-Nov-30 14:33N 29°57' W 090°10'9 0.3
2016-Nov-29 09:06N 29°56' W 089°60'6 4.1
2016-Nov-29 07:33N 29°55' W 090°07'3 3.5
2016-Nov-29 06:33N 29°57' W 090°10'2 1.6
2016-Nov-29 05:33N 29°56' W 090°12'1 0.2
2016-Nov-29 01:30N 29°56' W 090°11'2 2.5
2016-Nov-29 00:33N 29°57' W 090°13'3 0.1
2016-Nov-27 10:05N 29°58' W 090°17'2 3.8
2016-Nov-27 09:33N 29°58' W 090°15'4 3.6
2016-Nov-27 08:33N 29°56' W 090°11'0 0.0
2016-Nov-27 07:33N 29°56' W 090°11'3 2.7
2016-Nov-27 06:33N 29°57' W 090°08'1 0.2
2016-Nov-26 22:33N 29°55' W 090°08'3 3.1
2016-Nov-26 21:33N 29°56' W 090°12'5 4.7
2016-Nov-26 20:33N 29°58' W 090°16'  
Track history (hours):
 
Tides and Currents Weather Stations Pressure Air Temp Water Temp Dewpoint Dewpoint Depression Visibility Wind Speed Wind Dir Waves Ship Positions

Stephen R Warden

Owner: American Commercial Lines LLC, Jeffersonvile, IN. More information available from US FCC via Universal Licensing System and Coast Guard Vessel Documentation Center.

Last reported at 2016-Dec-04 10:23 UTC. Time now 2016-Dec-05 00:35 UTC.
Position N 29°57' W 090°02'.

Length 40 m; draft 3 m.

Type: Towing. MMSI: 367057460.

Date/timePositionNaut miles runAvg speedWind from/ knotsBaromVisibWave heightAir tempDewpointWater temp
2016-Dec-04 10:23N 29°57' W 090°02'5 4.3
2016-Dec-04 09:14N 29°55' W 090°07'3 4.8
2016-Dec-04 08:33N 29°57' W 090°09'3 2.7
2016-Dec-04 07:33N 29°56' W 090°11'1 0.9
2016-Dec-04 06:33N 29°55' W 090°12'4 0.1
2016-Dec-02 09:33N 29°58' W 090°15'4 3.9
2016-Dec-02 08:33N 29°55' W 090°12'2 2.0
2016-Dec-02 07:32N 29°57' W 090°10'2 0.1
2016-Dec-01 15:33N 29°56' W 090°08'4 3.9
2016-Dec-01 14:32N 29°56' W 090°13'5 0.2
2016-Nov-30 16:22N 29°58' W 090°18'4 4.4
2016-Nov-30 15:22N 29°56' W 090°13'3 4.0
2016-Nov-30 14:33N 29°57' W 090°10'9 0.3
2016-Nov-29 09:06N 29°56' W 089°60'6 4.1
2016-Nov-29 07:33N 29°55' W 090°07'3 3.5
2016-Nov-29 06:33N 29°57' W 090°10'2 1.6
2016-Nov-29 05:33N 29°56' W 090°12'1 0.2
2016-Nov-29 01:30N 29°56' W 090°11'2 2.5
2016-Nov-29 00:33N 29°57' W 090°13'3 0.1
2016-Nov-27 10:05N 29°58' W 090°17'2 3.8
2016-Nov-27 09:33N 29°58' W 090°15'4 3.6
2016-Nov-27 08:33N 29°56' W 090°11'0 0.0
2016-Nov-27 07:33N 29°56' W 090°11'3 2.7
2016-Nov-27 06:33N 29°57' W 090°08'1 0.2
2016-Nov-26 22:33N 29°55' W 090°08'3 3.1
2016-Nov-26 21:33N 29°56' W 090°12'5 4.7
2016-Nov-26 20:33N 29°58' W 090°16'  

Dump ship's entire track history